createdAt,value
2022-10-19T00:00:43.072Z,10.32
2022-10-19T00:06:51.541Z,9.70
2022-10-19T00:09:53.878Z,11.23
2022-10-19T00:12:56.032Z,10.02
2022-10-19T00:15:58.351Z,10.88
2022-10-19T00:19:02.266Z,10.10
2022-10-19T00:22:05.182Z,10.93
2022-10-19T00:25:08.341Z,10.38
2022-10-19T00:28:10.711Z,10.20
2022-10-19T00:31:16.286Z,11.18
2022-10-19T00:34:18.662Z,9.55
2022-10-19T00:37:20.733Z,9.85
2022-10-19T00:40:23.080Z,9.60
2022-10-19T00:43:27.986Z,10.18
2022-10-19T00:46:33.968Z,9.88
2022-10-19T00:49:42.689Z,10.07
2022-10-19T00:52:45.152Z,9.13
2022-10-19T00:55:47.551Z,9.52
2022-10-19T00:58:50.206Z,9.40
2022-10-19T01:01:53.366Z,9.00
2022-10-19T01:04:56.069Z,9.65
2022-10-19T01:07:58.347Z,9.38
2022-10-19T01:11:27.006Z,9.15
2022-10-19T01:14:35.275Z,9.13
2022-10-19T01:17:57.997Z,8.70
2022-10-19T01:21:02.781Z,8.70
2022-10-19T01:24:23.495Z,9.50
2022-10-19T01:28:00.313Z,9.80
2022-10-19T01:31:27.087Z,9.35
2022-10-19T01:34:51.338Z,9.30
2022-10-19T01:38:24.667Z,8.73
2022-10-19T01:41:41.326Z,9.55
2022-10-19T01:44:53.157Z,8.85
2022-10-19T01:48:12.000Z,9.77
2022-10-19T01:51:19.454Z,9.63
2022-10-19T01:54:24.102Z,9.68
2022-10-19T01:57:36.895Z,9.48
2022-10-19T02:00:42.661Z,9.88
2022-10-19T02:03:45.740Z,9.75
2022-10-19T02:06:50.767Z,9.77
2022-10-19T02:09:52.892Z,10.18
2022-10-19T02:12:56.758Z,10.70
2022-10-19T02:16:03.379Z,9.85
2022-10-19T02:19:08.678Z,9.57
2022-10-19T02:22:12.371Z,10.18
2022-10-19T02:25:15.587Z,10.13
2022-10-19T02:28:18.157Z,10.38
2022-10-19T02:31:21.145Z,10.13
2022-10-19T02:34:23.365Z,10.05
2022-10-19T02:37:25.931Z,10.23
2022-10-19T02:40:32.442Z,10.20
2022-10-19T02:43:38.184Z,10.63
2022-10-19T02:46:55.178Z,10.05
2022-10-19T02:49:57.545Z,9.45
2022-10-19T02:53:00.022Z,10.63
2022-10-19T02:56:02.368Z,10.60
2022-10-19T02:59:04.702Z,10.45
2022-10-19T03:02:07.559Z,10.13
2022-10-19T03:05:09.956Z,10.52
2022-10-19T03:08:12.309Z,10.32
2022-10-19T03:11:14.423Z,9.25
2022-10-19T03:14:16.759Z,9.25
2022-10-19T03:17:18.865Z,10.48
2022-10-19T03:20:21.250Z,11.07
2022-10-19T03:23:23.308Z,9.88
2022-10-19T03:26:25.631Z,10.50
2022-10-19T03:29:27.728Z,10.32
2022-10-19T03:32:30.085Z,10.82
2022-10-19T03:35:32.181Z,10.52
2022-10-19T03:38:34.502Z,11.32
2022-10-19T03:41:37.484Z,10.57
2022-10-19T03:44:39.819Z,11.52
2022-10-19T03:47:41.922Z,11.25
2022-10-19T03:50:44.271Z,11.45
2022-10-19T03:53:46.965Z,11.88
2022-10-19T03:56:49.309Z,12.25
2022-10-19T03:59:51.373Z,12.90
2022-10-19T04:02:53.706Z,13.77
2022-10-19T04:06:05.603Z,13.15
2022-10-19T04:09:09.029Z,13.13
2022-10-19T04:12:11.468Z,13.05
2022-10-19T04:15:13.582Z,14.55
2022-10-19T04:18:15.930Z,13.10
2022-10-19T04:21:27.193Z,13.50
2022-10-19T04:24:29.728Z,14.02
2022-10-19T04:27:32.125Z,13.73
2022-10-19T04:30:34.791Z,13.57
2022-10-19T04:33:36.967Z,13.65
2022-10-19T04:36:39.350Z,13.38
2022-10-19T04:39:43.248Z,13.15
2022-10-19T04:42:45.622Z,12.68
2022-10-19T04:45:47.920Z,12.15
2022-10-19T04:48:50.811Z,12.70
2022-10-19T04:51:53.036Z,11.73
2022-10-19T04:54:55.382Z,13.68
2022-10-19T04:57:57.438Z,13.65
2022-10-19T05:00:59.842Z,14.18
2022-10-19T05:04:03.087Z,13.75
2022-10-19T05:07:05.417Z,13.82
2022-10-19T05:10:09.112Z,13.68
2022-10-19T05:13:11.503Z,14.07
2022-10-19T05:16:16.679Z,14.10
2022-10-19T05:19:19.021Z,14.50
2022-10-19T05:22:21.114Z,13.73
2022-10-19T05:25:23.468Z,14.38
2022-10-19T05:28:25.695Z,13.95
2022-10-19T05:31:31.109Z,13.93
2022-10-19T05:34:33.406Z,14.50
2022-10-19T05:37:36.074Z,13.98
2022-10-19T05:40:38.510Z,14.45
2022-10-19T05:43:41.916Z,14.45
2022-10-19T05:46:44.803Z,14.18
2022-10-19T05:49:47.765Z,13.32
2022-10-19T05:52:49.964Z,11.57
2022-10-19T05:55:52.478Z,10.23
2022-10-19T05:58:56.672Z,8.98
2022-10-19T06:01:59.155Z,8.10
2022-10-19T06:05:01.661Z,8.40
2022-10-19T06:08:03.908Z,8.00
2022-10-19T06:11:13.203Z,6.72
2022-10-19T06:14:16.634Z,6.75
2022-10-19T06:17:19.114Z,6.80
2022-10-19T06:20:21.279Z,6.90
2022-10-19T06:23:23.613Z,6.97
2022-10-19T06:26:26.807Z,5.95
2022-10-19T06:29:29.257Z,5.80
2022-10-19T06:32:32.336Z,6.22
2022-10-19T06:35:35.377Z,6.57
2022-10-19T06:38:37.799Z,6.18
2022-10-19T06:41:40.125Z,6.03
2022-10-19T06:44:43.933Z,5.18
2022-10-19T06:51:06.429Z,5.18
2022-10-19T06:54:09.059Z,5.15
2022-10-19T06:57:11.138Z,5.20
2022-10-19T07:00:14.099Z,4.62
2022-10-19T07:03:16.177Z,5.70
2022-10-19T07:06:19.072Z,5.37
2022-10-19T07:09:22.384Z,5.70
2022-10-19T07:12:24.707Z,6.72
2022-10-19T07:15:26.770Z,5.28
2022-10-19T07:18:29.181Z,5.75
2022-10-19T07:21:31.297Z,5.53
2022-10-19T07:24:33.640Z,5.78
2022-10-19T07:27:37.805Z,5.20
2022-10-19T07:30:40.347Z,5.32
2022-10-19T07:33:42.436Z,5.32
2022-10-19T07:36:47.984Z,5.18
2022-10-19T07:39:50.092Z,5.65
2022-10-19T07:42:52.424Z,5.55
2022-10-19T07:46:02.027Z,5.47
2022-10-19T07:49:10.798Z,6.03
2022-10-19T07:52:12.881Z,5.30
2022-10-19T07:55:15.437Z,5.85
2022-10-19T07:58:17.616Z,5.82
2022-10-19T08:01:22.541Z,5.82
2022-10-19T08:04:56.034Z,5.55
2022-10-19T08:07:47.012Z,5.43
2022-10-19T08:10:49.416Z,5.70
2022-10-19T08:13:52.194Z,5.85
2022-10-19T08:16:54.512Z,6.00
2022-10-19T08:19:56.594Z,6.30
2022-10-19T08:22:59.210Z,5.85
2022-10-19T08:26:01.351Z,6.05
2022-10-19T08:29:06.809Z,5.15
2022-10-19T08:32:08.966Z,4.93
2022-10-19T08:35:11.566Z,5.40
2022-10-19T08:38:13.756Z,5.85
2022-10-19T08:45:28.349Z,5.47
2022-10-19T08:48:33.783Z,5.57
2022-10-19T08:51:41.773Z,6.05
2022-10-19T08:54:51.903Z,5.37
2022-10-19T08:58:27.580Z,5.40
2022-10-19T09:01:40.983Z,4.95
2022-10-19T09:04:49.400Z,5.28
2022-10-19T09:07:53.885Z,5.80
2022-10-19T09:10:57.290Z,5.12
2022-10-19T09:14:40.096Z,5.40
2022-10-19T09:17:42.212Z,5.10
2022-10-19T09:20:47.995Z,4.90
2022-10-19T09:24:26.961Z,6.28
2022-10-19T09:27:35.444Z,4.20
2022-10-19T09:30:40.426Z,4.07
2022-10-19T09:33:47.224Z,4.22
2022-10-19T09:36:56.057Z,4.00
2022-10-19T09:39:58.378Z,3.60
2022-10-19T09:43:08.743Z,4.43
2022-10-19T09:46:20.691Z,4.00
2022-10-19T09:49:40.648Z,4.20
2022-10-19T09:52:45.852Z,5.00
2022-10-19T09:55:56.612Z,4.70
2022-10-19T09:58:59.023Z,3.87
2022-10-19T10:02:19.228Z,4.15
2022-10-19T10:05:37.638Z,3.80
2022-10-19T10:08:57.869Z,3.87
2022-10-19T10:15:05.984Z,4.10
2022-10-19T10:18:16.342Z,4.22
2022-10-19T10:21:26.474Z,4.43
2022-10-19T10:24:31.054Z,4.37
2022-10-19T10:27:36.678Z,3.70
2022-10-19T10:30:39.438Z,3.80
2022-10-19T10:33:45.880Z,4.85
2022-10-19T10:36:51.287Z,3.12
2022-10-19T10:39:57.687Z,2.40
2022-10-19T10:43:08.682Z,2.10
2022-10-19T10:46:19.660Z,1.95
2022-10-19T10:49:28.917Z,1.98
2022-10-19T10:52:31.733Z,2.20
2022-10-19T10:55:34.437Z,3.10
2022-10-19T10:58:47.889Z,2.25
2022-10-19T11:02:09.610Z,2.17
2022-10-19T11:05:14.575Z,1.95
2022-10-19T11:08:38.514Z,2.25
2022-10-19T11:11:45.077Z,1.80
2022-10-19T11:14:59.331Z,1.80
2022-10-19T11:18:07.854Z,1.45
2022-10-19T11:21:12.912Z,1.10
2022-10-19T11:24:41.881Z,1.40
2022-10-19T11:28:04.810Z,1.62
2022-10-19T11:34:57.978Z,1.67
2022-10-19T11:38:25.131Z,1.65
2022-10-19T11:41:50.410Z,2.40
2022-10-19T11:45:10.954Z,1.92
2022-10-19T11:48:41.676Z,1.50
2022-10-19T11:51:57.558Z,1.75
2022-10-19T11:55:02.636Z,2.20
2022-10-19T11:58:34.499Z,1.70
2022-10-19T12:01:58.615Z,1.75
2022-10-19T12:05:27.921Z,1.37
2022-10-19T12:08:30.091Z,2.08
2022-10-19T12:11:42.016Z,1.83
2022-10-19T12:14:48.830Z,1.52
2022-10-19T12:17:56.126Z,1.60
2022-10-19T12:21:02.679Z,1.35
2022-10-19T12:24:14.420Z,1.73
2022-10-19T12:27:18.520Z,1.70
2022-10-19T12:30:23.484Z,1.73
2022-10-19T12:33:46.749Z,1.27
2022-10-19T12:36:54.925Z,2.30
2022-10-19T12:40:15.343Z,1.70
2022-10-19T12:46:42.890Z,1.42
2022-10-19T12:49:49.931Z,1.40
2022-10-19T12:52:54.453Z,1.60
2022-10-19T12:56:13.675Z,2.15
2022-10-19T12:59:26.125Z,3.08
2022-10-19T13:05:41.553Z,1.62
2022-10-19T13:08:53.019Z,1.45
2022-10-19T13:12:25.794Z,1.40
2022-10-19T13:15:50.218Z,1.85
2022-10-19T13:19:01.539Z,1.70
2022-10-19T13:22:26.949Z,1.75
2022-10-19T13:25:32.738Z,1.50
2022-10-19T13:28:37.741Z,2.00
2022-10-19T13:31:39.896Z,1.80
2022-10-19T13:34:42.221Z,2.35
2022-10-19T13:37:44.694Z,2.00
2022-10-19T13:40:50.066Z,2.22
2022-10-19T13:44:16.935Z,2.47
2022-10-19T13:47:19.181Z,2.30
2022-10-19T13:50:43.666Z,1.95
2022-10-19T13:54:19.146Z,2.30
2022-10-19T13:57:59.142Z,2.00
2022-10-19T14:01:18.501Z,2.47
2022-10-19T14:04:33.335Z,2.67
2022-10-19T14:08:14.384Z,2.55
2022-10-19T14:11:32.138Z,2.60
2022-10-19T14:14:44.333Z,2.75
2022-10-19T14:17:46.772Z,3.22
2022-10-19T14:21:05.798Z,3.10
2022-10-19T14:24:34.257Z,3.10
2022-10-19T14:27:36.962Z,3.20
2022-10-19T14:30:44.312Z,3.30
2022-10-19T14:33:50.541Z,3.35
2022-10-19T14:36:52.933Z,2.95
2022-10-19T14:40:16.476Z,3.17
2022-10-19T14:43:24.292Z,3.50
2022-10-19T14:46:30.963Z,2.97
2022-10-19T14:49:33.363Z,2.80
2022-10-19T14:52:39.508Z,2.83
2022-10-19T14:55:42.626Z,3.47
2022-10-19T14:58:56.300Z,3.20
2022-10-19T15:02:02.483Z,2.90
2022-10-19T15:05:06.577Z,2.83
2022-10-19T15:08:17.101Z,3.10
2022-10-19T15:11:37.870Z,2.67
2022-10-19T15:14:40.562Z,2.55
2022-10-19T15:17:54.380Z,2.78
2022-10-19T15:21:14.042Z,2.85
2022-10-19T15:24:28.158Z,2.78
2022-10-19T15:27:36.012Z,3.05
2022-10-19T15:30:38.163Z,2.70
2022-10-19T15:33:45.059Z,2.80
2022-10-19T15:37:01.285Z,3.40
2022-10-19T15:40:22.439Z,3.20
2022-10-19T15:47:12.349Z,3.10
2022-10-19T15:50:31.986Z,3.50
2022-10-19T15:53:34.330Z,3.43
2022-10-19T15:56:39.015Z,3.97
2022-10-19T15:59:41.360Z,3.03
2022-10-19T16:02:43.717Z,3.37
2022-10-19T16:05:47.124Z,2.87
2022-10-19T16:08:51.209Z,3.37
2022-10-19T16:11:56.957Z,3.37
2022-10-19T16:14:59.068Z,3.30
2022-10-19T16:18:01.487Z,2.80
2022-10-19T16:21:03.874Z,2.65
2022-10-19T16:24:06.384Z,2.92
2022-10-19T16:27:09.332Z,2.90
2022-10-19T16:30:12.784Z,3.28
2022-10-19T16:33:14.853Z,2.85
2022-10-19T16:36:20.170Z,3.10
2022-10-19T16:39:25.348Z,3.00
2022-10-19T16:42:30.438Z,3.03
2022-10-19T16:45:32.871Z,3.47
2022-10-19T16:48:35.400Z,2.92
2022-10-19T16:51:38.241Z,3.10
2022-10-19T16:54:40.653Z,3.12
2022-10-19T16:57:42.712Z,2.97
2022-10-19T17:00:45.027Z,2.97
2022-10-19T17:03:48.638Z,3.33
2022-10-19T17:06:50.991Z,3.10
2022-10-19T17:09:54.823Z,3.10
2022-10-19T17:12:57.447Z,3.05
2022-10-19T17:16:03.048Z,3.05
2022-10-19T17:19:07.671Z,3.10
2022-10-19T17:22:09.724Z,3.42
2022-10-19T17:25:12.078Z,3.45
2022-10-19T17:28:14.264Z,2.85
2022-10-19T17:31:16.601Z,3.40
2022-10-19T17:34:19.179Z,2.67
2022-10-19T17:37:21.525Z,3.42
2022-10-19T17:40:23.590Z,3.12
2022-10-19T17:43:25.918Z,3.55
2022-10-19T17:46:30.941Z,3.50
2022-10-19T17:49:33.272Z,3.30
2022-10-19T17:52:35.348Z,3.45
2022-10-19T17:55:37.669Z,3.37
2022-10-19T17:58:40.196Z,3.78
2022-10-19T18:01:42.706Z,3.75
2022-10-19T18:04:45.023Z,3.22
2022-10-19T18:07:49.119Z,3.58
2022-10-19T18:11:00.259Z,3.53
2022-10-19T18:17:05.077Z,3.58
2022-10-19T18:20:07.815Z,3.85
2022-10-19T18:23:10.183Z,3.60
2022-10-19T18:26:19.793Z,3.20
2022-10-19T18:29:25.227Z,3.42
2022-10-19T18:32:27.311Z,3.35
2022-10-19T18:35:29.916Z,3.58
2022-10-19T18:38:32.201Z,3.70
2022-10-19T18:41:34.783Z,3.28
2022-10-19T18:44:36.844Z,3.45
2022-10-19T18:47:39.168Z,3.40
2022-10-19T18:50:41.318Z,3.37
2022-10-19T18:53:45.081Z,3.58
2022-10-19T18:56:47.236Z,3.60
2022-10-19T18:59:49.542Z,3.42
2022-10-19T19:02:55.360Z,3.50
2022-10-19T19:06:01.896Z,3.33
2022-10-19T19:09:07.756Z,3.20
2022-10-19T19:12:10.107Z,3.42
2022-10-19T19:15:12.320Z,3.70
2022-10-19T19:18:14.690Z,3.55
2022-10-19T19:21:23.106Z,3.87
2022-10-19T19:24:31.347Z,3.90
2022-10-19T19:27:33.541Z,3.92
2022-10-19T19:30:44.024Z,3.22
2022-10-19T19:33:47.371Z,3.22
2022-10-19T19:36:49.826Z,2.70
2022-10-19T19:39:51.913Z,3.00
2022-10-19T19:42:54.218Z,3.47
2022-10-19T19:46:04.556Z,3.35
2022-10-19T19:49:10.663Z,3.20
2022-10-19T19:52:13.082Z,3.10
2022-10-19T19:55:15.418Z,2.85
2022-10-19T19:58:18.807Z,3.55
2022-10-19T20:01:21.753Z,2.97
2022-10-19T20:04:24.176Z,3.40
2022-10-19T20:07:26.986Z,2.92
2022-10-19T20:10:29.321Z,2.62
2022-10-19T20:13:31.688Z,2.87
2022-10-19T20:16:34.284Z,2.65
2022-10-19T20:19:36.552Z,2.80
2022-10-19T20:22:39.103Z,3.03
2022-10-19T20:25:41.181Z,3.22
2022-10-19T20:28:44.220Z,2.95
2022-10-19T20:31:46.310Z,2.60
2022-10-19T20:34:48.624Z,2.70
2022-10-19T20:37:50.904Z,2.50
2022-10-19T20:40:54.519Z,2.75
2022-10-19T20:43:56.678Z,2.75
2022-10-19T20:46:59.097Z,2.53
2022-10-19T20:50:01.224Z,2.72
2022-10-19T20:53:03.583Z,2.67
2022-10-19T20:56:10.642Z,2.70
2022-10-19T20:59:17.577Z,2.20
2022-10-19T21:02:19.637Z,3.03
2022-10-19T21:05:22.462Z,3.17
2022-10-19T21:08:24.639Z,3.42
2022-10-19T21:11:29.278Z,3.40
2022-10-19T21:14:31.493Z,3.20
2022-10-19T21:17:33.867Z,3.05
2022-10-19T21:20:37.015Z,3.58
2022-10-19T21:23:39.496Z,3.05
2022-10-19T21:26:41.705Z,3.17
2022-10-19T21:29:44.088Z,3.50
2022-10-19T21:32:47.947Z,2.60
2022-10-19T21:38:57.526Z,3.10
2022-10-19T21:41:59.862Z,3.12
2022-10-19T21:45:18.253Z,3.10
2022-10-19T21:48:24.576Z,3.60
2022-10-19T21:51:43.182Z,2.72
2022-10-19T21:54:45.511Z,3.08
2022-10-19T21:57:47.623Z,2.78
2022-10-19T22:00:49.949Z,2.85
2022-10-19T22:04:00.255Z,3.17
2022-10-19T22:07:02.284Z,3.03
2022-10-19T22:10:05.051Z,3.10
2022-10-19T22:13:07.128Z,2.87
2022-10-19T22:16:13.183Z,3.20
2022-10-19T22:19:15.233Z,2.90
2022-10-19T22:22:17.579Z,2.75
2022-10-19T22:25:19.731Z,2.83
2022-10-19T22:28:22.052Z,2.92
2022-10-19T22:31:25.990Z,2.80
2022-10-19T22:34:28.342Z,3.25
2022-10-19T22:37:30.452Z,2.95
2022-10-19T22:40:32.817Z,2.80
2022-10-19T22:43:34.928Z,3.05
2022-10-19T22:46:37.316Z,3.15
2022-10-19T22:49:39.433Z,3.30
2022-10-19T22:52:41.813Z,3.37
2022-10-19T22:55:43.986Z,3.30
2022-10-19T22:58:46.408Z,4.95
2022-10-19T23:01:48.647Z,3.78
2022-10-19T23:04:51.087Z,3.75
2022-10-19T23:07:53.176Z,3.55
2022-10-19T23:10:55.790Z,3.42
2022-10-19T23:13:58.019Z,3.65
2022-10-19T23:17:00.420Z,3.60
2022-10-19T23:20:02.576Z,3.60
2022-10-19T23:23:05.230Z,4.10
2022-10-19T23:26:09.060Z,3.80
2022-10-19T23:29:11.439Z,3.92
2022-10-19T23:32:13.554Z,4.35
2022-10-19T23:35:16.017Z,3.75
2022-10-19T23:38:18.231Z,3.80
2022-10-19T23:41:21.356Z,3.85
2022-10-19T23:44:23.450Z,3.83
2022-10-19T23:47:25.875Z,3.83
2022-10-19T23:50:27.997Z,3.72
2022-10-19T23:53:36.963Z,4.00
2022-10-19T23:56:42.101Z,3.85
2022-10-19T23:59:44.443Z,3.92
